sensor_id;sensor_type;location;lat;lon;timestamp;P1;durP1;ratioP1;P2;durP2;ratioP2
48765;SDS011;65794;51.836;5.002;2024-03-02T00:01:36;1.33;;;0.60;;
48765;SDS011;65794;51.836;5.002;2024-03-02T00:04:03;1.77;;;0.50;;
48765;SDS011;65794;51.836;5.002;2024-03-02T00:06:30;1.08;;;0.50;;
48765;SDS011;65794;51.836;5.002;2024-03-02T00:08:58;0.70;;;0.60;;
48765;SDS011;65794;51.836;5.002;2024-03-02T00:11:25;0.90;;;0.63;;
48765;SDS011;65794;51.836;5.002;2024-03-02T00:13:52;1.70;;;0.63;;
48765;SDS011;65794;51.836;5.002;2024-03-02T00:16:19;0.90;;;0.60;;
48765;SDS011;65794;51.836;5.002;2024-03-02T00:18:46;2.58;;;0.70;;
48765;SDS011;65794;51.836;5.002;2024-03-02T00:21:13;0.73;;;0.60;;
48765;SDS011;65794;51.836;5.002;2024-03-02T00:23:41;0.93;;;0.60;;
48765;SDS011;65794;51.836;5.002;2024-03-02T00:26:11;0.90;;;0.80;;
48765;SDS011;65794;51.836;5.002;2024-03-02T00:28:38;1.33;;;0.90;;
48765;SDS011;65794;51.836;5.002;2024-03-02T00:31:06;2.47;;;1.00;;
48765;SDS011;65794;51.836;5.002;2024-03-02T00:33:39;2.17;;;1.15;;
48765;SDS011;65794;51.836;5.002;2024-03-02T00:36:07;1.00;;;0.90;;
48765;SDS011;65794;51.836;5.002;2024-03-02T00:38:35;1.17;;;1.02;;
48765;SDS011;65794;51.836;5.002;2024-03-02T00:41:07;1.20;;;1.10;;
48765;SDS011;65794;51.836;5.002;2024-03-02T00:43:44;1.25;;;1.15;;
48765;SDS011;65794;51.836;5.002;2024-03-02T00:46:18;3.47;;;1.15;;
48765;SDS011;65794;51.836;5.002;2024-03-02T00:48:53;3.17;;;1.42;;
48765;SDS011;65794;51.836;5.002;2024-03-02T00:51:22;1.58;;;1.48;;
48765;SDS011;65794;51.836;5.002;2024-03-02T00:53:50;1.65;;;1.33;;
48765;SDS011;65794;51.836;5.002;2024-03-02T00:56:17;2.33;;;1.45;;
48765;SDS011;65794;51.836;5.002;2024-03-02T00:58:44;2.05;;;1.35;;
48765;SDS011;65794;51.836;5.002;2024-03-02T01:01:11;1.52;;;1.25;;
48765;SDS011;65794;51.836;5.002;2024-03-02T01:03:38;1.40;;;1.30;;
48765;SDS011;65794;51.836;5.002;2024-03-02T01:06:06;2.33;;;1.50;;
48765;SDS011;65794;51.836;5.002;2024-03-02T01:08:38;1.55;;;1.33;;
48765;SDS011;65794;51.836;5.002;2024-03-02T01:11:05;1.80;;;1.50;;
48765;SDS011;65794;51.836;5.002;2024-03-02T01:13:32;1.50;;;1.40;;
48765;SDS011;65794;51.836;5.002;2024-03-02T01:15:59;4.25;;;1.50;;
48765;SDS011;65794;51.836;5.002;2024-03-02T01:18:33;1.45;;;1.35;;
48765;SDS011;65794;51.836;5.002;2024-03-02T01:21:00;1.90;;;1.30;;
48765;SDS011;65794;51.836;5.002;2024-03-02T01:23:28;2.35;;;1.45;;
48765;SDS011;65794;51.836;5.002;2024-03-02T01:25:55;1.50;;;1.27;;
48765;SDS011;65794;51.836;5.002;2024-03-02T01:28:22;2.47;;;1.55;;
48765;SDS011;65794;51.836;5.002;2024-03-02T01:30:48;2.33;;;1.55;;
48765;SDS011;65794;51.836;5.002;2024-03-02T01:33:19;4.43;;;1.63;;
48765;SDS011;65794;51.836;5.002;2024-03-02T01:35:46;1.65;;;1.50;;
48765;SDS011;65794;51.836;5.002;2024-03-02T01:38:14;1.95;;;1.30;;
48765;SDS011;65794;51.836;5.002;2024-03-02T01:40:41;2.88;;;1.35;;
48765;SDS011;65794;51.836;5.002;2024-03-02T01:43:08;3.83;;;1.65;;
48765;SDS011;65794;51.836;5.002;2024-03-02T01:45:35;2.55;;;1.60;;
48765;SDS011;65794;51.836;5.002;2024-03-02T01:48:04;2.83;;;1.38;;
48765;SDS011;65794;51.836;5.002;2024-03-02T01:50:31;3.35;;;1.70;;
48765;SDS011;65794;51.836;5.002;2024-03-02T01:52:59;1.77;;;1.45;;
48765;SDS011;65794;51.836;5.002;2024-03-02T01:55:26;3.97;;;1.63;;
48765;SDS011;65794;51.836;5.002;2024-03-02T01:57:55;2.15;;;1.60;;
48765;SDS011;65794;51.836;5.002;2024-03-02T02:00:22;2.67;;;1.67;;
48765;SDS011;65794;51.836;5.002;2024-03-02T02:02:51;3.53;;;1.60;;
48765;SDS011;65794;51.836;5.002;2024-03-02T02:05:19;2.53;;;1.70;;
48765;SDS011;65794;51.836;5.002;2024-03-02T02:07:46;2.60;;;2.10;;
48765;SDS011;65794;51.836;5.002;2024-03-02T02:10:13;3.70;;;1.70;;
48765;SDS011;65794;51.836;5.002;2024-03-02T02:12:41;2.58;;;1.60;;
48765;SDS011;65794;51.836;5.002;2024-03-02T02:15:27;2.33;;;1.63;;
48765;SDS011;65794;51.836;5.002;2024-03-02T02:17:55;3.20;;;1.60;;
48765;SDS011;65794;51.836;5.002;2024-03-02T02:20:24;1.92;;;1.50;;
48765;SDS011;65794;51.836;5.002;2024-03-02T02:25:21;1.98;;;1.40;;
48765;SDS011;65794;51.836;5.002;2024-03-02T02:27:48;1.90;;;1.23;;
48765;SDS011;65794;51.836;5.002;2024-03-02T02:30:18;1.63;;;1.20;;
48765;SDS011;65794;51.836;5.002;2024-03-02T02:32:45;2.83;;;1.20;;
48765;SDS011;65794;51.836;5.002;2024-03-02T02:35:12;2.75;;;1.10;;
48765;SDS011;65794;51.836;5.002;2024-03-02T02:37:39;1.75;;;1.20;;
48765;SDS011;65794;51.836;5.002;2024-03-02T02:40:07;2.47;;;1.20;;
48765;SDS011;65794;51.836;5.002;2024-03-02T02:42:34;1.70;;;1.30;;
48765;SDS011;65794;51.836;5.002;2024-03-02T02:45:01;2.08;;;1.00;;
48765;SDS011;65794;51.836;5.002;2024-03-02T02:47:28;1.30;;;0.90;;
48765;SDS011;65794;51.836;5.002;2024-03-02T02:49:56;1.33;;;1.00;;
48765;SDS011;65794;51.836;5.002;2024-03-02T02:52:23;1.42;;;0.82;;
48765;SDS011;65794;51.836;5.002;2024-03-02T02:54:50;1.10;;;0.80;;
48765;SDS011;65794;51.836;5.002;2024-03-02T02:57:18;2.92;;;0.90;;
48765;SDS011;65794;51.836;5.002;2024-03-02T02:59:45;1.45;;;0.93;;
48765;SDS011;65794;51.836;5.002;2024-03-02T03:02:12;1.55;;;0.90;;
48765;SDS011;65794;51.836;5.002;2024-03-02T03:04:39;1.15;;;0.80;;
48765;SDS011;65794;51.836;5.002;2024-03-02T03:07:07;1.00;;;0.80;;
48765;SDS011;65794;51.836;5.002;2024-03-02T03:09:36;1.60;;;0.98;;
48765;SDS011;65794;51.836;5.002;2024-03-02T03:12:03;1.23;;;0.85;;
48765;SDS011;65794;51.836;5.002;2024-03-02T03:14:30;2.42;;;0.90;;
48765;SDS011;65794;51.836;5.002;2024-03-02T03:16:57;1.23;;;0.80;;
48765;SDS011;65794;51.836;5.002;2024-03-02T03:19:23;0.73;;;0.70;;
48765;SDS011;65794;51.836;5.002;2024-03-02T03:21:50;1.23;;;0.70;;
48765;SDS011;65794;51.836;5.002;2024-03-02T03:24:17;1.05;;;0.68;;
48765;SDS011;65794;51.836;5.002;2024-03-02T03:26:44;1.35;;;0.70;;
48765;SDS011;65794;51.836;5.002;2024-03-02T03:29:11;3.08;;;0.80;;
48765;SDS011;65794;51.836;5.002;2024-03-02T03:31:38;1.30;;;0.80;;
48765;SDS011;65794;51.836;5.002;2024-03-02T03:34:04;1.42;;;0.73;;
48765;SDS011;65794;51.836;5.002;2024-03-02T03:36:31;1.30;;;0.80;;
48765;SDS011;65794;51.836;5.002;2024-03-02T03:38:58;2.15;;;0.90;;
48765;SDS011;65794;51.836;5.002;2024-03-02T03:41:26;1.10;;;0.80;;
48765;SDS011;65794;51.836;5.002;2024-03-02T03:43:53;1.30;;;0.73;;
48765;SDS011;65794;51.836;5.002;2024-03-02T03:46:19;1.70;;;0.70;;
48765;SDS011;65794;51.836;5.002;2024-03-02T03:48:46;1.10;;;0.73;;
48765;SDS011;65794;51.836;5.002;2024-03-02T03:51:13;2.13;;;0.80;;
48765;SDS011;65794;51.836;5.002;2024-03-02T03:53:40;1.30;;;0.70;;
48765;SDS011;65794;51.836;5.002;2024-03-02T03:56:07;3.05;;;0.95;;
48765;SDS011;65794;51.836;5.002;2024-03-02T03:58:34;0.90;;;0.70;;
48765;SDS011;65794;51.836;5.002;2024-03-02T04:01:01;1.77;;;1.00;;
48765;SDS011;65794;51.836;5.002;2024-03-02T04:03:28;3.13;;;1.00;;
48765;SDS011;65794;51.836;5.002;2024-03-02T04:05:54;1.33;;;0.70;;
48765;SDS011;65794;51.836;5.002;2024-03-02T04:08:21;2.88;;;0.70;;
48765;SDS011;65794;51.836;5.002;2024-03-02T04:10:48;1.55;;;0.77;;
48765;SDS011;65794;51.836;5.002;2024-03-02T04:13:15;1.35;;;0.77;;
48765;SDS011;65794;51.836;5.002;2024-03-02T04:15:42;1.02;;;0.60;;
48765;SDS011;65794;51.836;5.002;2024-03-02T04:18:08;1.00;;;0.70;;
48765;SDS011;65794;51.836;5.002;2024-03-02T04:20:35;0.88;;;0.60;;
48765;SDS011;65794;51.836;5.002;2024-03-02T04:23:02;3.30;;;1.08;;
48765;SDS011;65794;51.836;5.002;2024-03-02T04:25:29;2.83;;;0.77;;
48765;SDS011;65794;51.836;5.002;2024-03-02T04:27:56;1.17;;;0.70;;
48765;SDS011;65794;51.836;5.002;2024-03-02T04:30:23;1.00;;;0.70;;
48765;SDS011;65794;51.836;5.002;2024-03-02T04:32:50;2.72;;;0.70;;
48765;SDS011;65794;51.836;5.002;2024-03-02T04:35:17;3.90;;;0.90;;
48765;SDS011;65794;51.836;5.002;2024-03-02T04:37:44;1.88;;;1.00;;
48765;SDS011;65794;51.836;5.002;2024-03-02T04:40:11;1.48;;;0.80;;
48765;SDS011;65794;51.836;5.002;2024-03-02T04:42:38;3.40;;;0.68;;
48765;SDS011;65794;51.836;5.002;2024-03-02T04:45:05;3.28;;;0.90;;
48765;SDS011;65794;51.836;5.002;2024-03-02T04:47:32;1.13;;;0.70;;
48765;SDS011;65794;51.836;5.002;2024-03-02T04:49:59;1.92;;;0.80;;
48765;SDS011;65794;51.836;5.002;2024-03-02T04:52:26;2.65;;;0.80;;
48765;SDS011;65794;51.836;5.002;2024-03-02T04:54:52;0.95;;;0.55;;
48765;SDS011;65794;51.836;5.002;2024-03-02T04:57:38;3.70;;;0.70;;
48765;SDS011;65794;51.836;5.002;2024-03-02T05:00:05;3.83;;;0.80;;
48765;SDS011;65794;51.836;5.002;2024-03-02T05:02:35;5.70;;;0.90;;
48765;SDS011;65794;51.836;5.002;2024-03-02T05:05:02;4.25;;;0.80;;
48765;SDS011;65794;51.836;5.002;2024-03-02T05:07:30;6.20;;;0.80;;
48765;SDS011;65794;51.836;5.002;2024-03-02T05:09:57;3.17;;;0.98;;
48765;SDS011;65794;51.836;5.002;2024-03-02T05:12:23;3.25;;;0.93;;
48765;SDS011;65794;51.836;5.002;2024-03-02T05:17:37;0.70;;;0.50;;
48765;SDS011;65794;51.836;5.002;2024-03-02T05:20:05;2.63;;;0.68;;
48765;SDS011;65794;51.836;5.002;2024-03-02T05:22:32;5.13;;;0.70;;
48765;SDS011;65794;51.836;5.002;2024-03-02T05:25:00;1.65;;;0.68;;
48765;SDS011;65794;51.836;5.002;2024-03-02T05:27:28;1.85;;;0.50;;
48765;SDS011;65794;51.836;5.002;2024-03-02T05:29:55;1.90;;;0.70;;
48765;SDS011;65794;51.836;5.002;2024-03-02T05:32:22;1.52;;;0.40;;
48765;SDS011;65794;51.836;5.002;2024-03-02T05:34:50;2.92;;;0.90;;
48765;SDS011;65794;51.836;5.002;2024-03-02T05:37:17;2.22;;;0.60;;
48765;SDS011;65794;51.836;5.002;2024-03-02T05:39:44;0.52;;;0.30;;
48765;SDS011;65794;51.836;5.002;2024-03-02T05:42:12;1.33;;;0.40;;
48765;SDS011;65794;51.836;5.002;2024-03-02T05:44:39;1.17;;;0.60;;
48765;SDS011;65794;51.836;5.002;2024-03-02T05:47:06;1.35;;;0.43;;
48765;SDS011;65794;51.836;5.002;2024-03-02T05:49:35;4.63;;;0.60;;
48765;SDS011;65794;51.836;5.002;2024-03-02T05:52:02;1.50;;;0.50;;
48765;SDS011;65794;51.836;5.002;2024-03-02T05:54:30;1.92;;;0.60;;
48765;SDS011;65794;51.836;5.002;2024-03-02T05:56:57;2.10;;;0.70;;
48765;SDS011;65794;51.836;5.002;2024-03-02T05:59:43;2.63;;;0.60;;
48765;SDS011;65794;51.836;5.002;2024-03-02T06:02:13;1.20;;;0.50;;
48765;SDS011;65794;51.836;5.002;2024-03-02T06:04:40;1.40;;;0.60;;
48765;SDS011;65794;51.836;5.002;2024-03-02T06:07:07;1.90;;;0.70;;
48765;SDS011;65794;51.836;5.002;2024-03-02T06:09:34;1.90;;;0.70;;
48765;SDS011;65794;51.836;5.002;2024-03-02T06:12:00;3.78;;;0.70;;
48765;SDS011;65794;51.836;5.002;2024-03-02T06:14:27;1.05;;;0.70;;
48765;SDS011;65794;51.836;5.002;2024-03-02T06:16:54;4.47;;;1.17;;
48765;SDS011;65794;51.836;5.002;2024-03-02T06:19:21;1.92;;;0.70;;
48765;SDS011;65794;51.836;5.002;2024-03-02T06:21:48;2.08;;;0.57;;
48765;SDS011;65794;51.836;5.002;2024-03-02T06:24:15;2.90;;;0.65;;
48765;SDS011;65794;51.836;5.002;2024-03-02T06:26:42;2.03;;;0.65;;
48765;SDS011;65794;51.836;5.002;2024-03-02T06:29:09;4.95;;;0.80;;
48765;SDS011;65794;51.836;5.002;2024-03-02T06:31:37;1.23;;;0.63;;
48765;SDS011;65794;51.836;5.002;2024-03-02T06:34:04;2.03;;;0.60;;
48765;SDS011;65794;51.836;5.002;2024-03-02T06:36:31;3.28;;;0.70;;
48765;SDS011;65794;51.836;5.002;2024-03-02T06:38:58;2.50;;;0.60;;
48765;SDS011;65794;51.836;5.002;2024-03-02T06:41:25;3.03;;;0.75;;
48765;SDS011;65794;51.836;5.002;2024-03-02T06:43:54;1.55;;;0.80;;
48765;SDS011;65794;51.836;5.002;2024-03-02T06:46:26;0.60;;;0.40;;
48765;SDS011;65794;51.836;5.002;2024-03-02T06:48:53;1.80;;;0.90;;
48765;SDS011;65794;51.836;5.002;2024-03-02T06:51:20;1.63;;;0.77;;
48765;SDS011;65794;51.836;5.002;2024-03-02T06:53:47;2.85;;;0.70;;
48765;SDS011;65794;51.836;5.002;2024-03-02T06:56:17;1.10;;;0.60;;
48765;SDS011;65794;51.836;5.002;2024-03-02T06:58:44;2.67;;;0.80;;
48765;SDS011;65794;51.836;5.002;2024-03-02T07:01:11;0.93;;;0.60;;
48765;SDS011;65794;51.836;5.002;2024-03-02T07:03:38;1.77;;;0.60;;
48765;SDS011;65794;51.836;5.002;2024-03-02T07:06:06;1.65;;;0.60;;
48765;SDS011;65794;51.836;5.002;2024-03-02T07:08:33;2.67;;;0.70;;
48765;SDS011;65794;51.836;5.002;2024-03-02T07:11:00;1.40;;;0.63;;
48765;SDS011;65794;51.836;5.002;2024-03-02T07:13:28;3.08;;;0.70;;
48765;SDS011;65794;51.836;5.002;2024-03-02T07:15:54;2.03;;;0.70;;
48765;SDS011;65794;51.836;5.002;2024-03-02T07:18:32;2.65;;;0.70;;
48765;SDS011;65794;51.836;5.002;2024-03-02T07:21:00;4.30;;;0.60;;
48765;SDS011;65794;51.836;5.002;2024-03-02T07:23:28;1.77;;;0.68;;
48765;SDS011;65794;51.836;5.002;2024-03-02T07:25:54;6.85;;;1.00;;
48765;SDS011;65794;51.836;5.002;2024-03-02T07:28:26;3.38;;;0.60;;
48765;SDS011;65794;51.836;5.002;2024-03-02T07:33:27;3.42;;;0.88;;
48765;SDS011;65794;51.836;5.002;2024-03-02T07:35:54;3.80;;;0.77;;
48765;SDS011;65794;51.836;5.002;2024-03-02T07:38:22;2.50;;;0.70;;
48765;SDS011;65794;51.836;5.002;2024-03-02T07:40:49;1.92;;;0.90;;
48765;SDS011;65794;51.836;5.002;2024-03-02T07:43:17;2.20;;;0.80;;
48765;SDS011;65794;51.836;5.002;2024-03-02T07:45:45;6.25;;;0.68;;
48765;SDS011;65794;51.836;5.002;2024-03-02T07:48:13;4.82;;;0.68;;
48765;SDS011;65794;51.836;5.002;2024-03-02T07:50:39;5.78;;;0.80;;
48765;SDS011;65794;51.836;5.002;2024-03-02T07:53:07;4.45;;;0.70;;
48765;SDS011;65794;51.836;5.002;2024-03-02T07:55:35;1.75;;;0.60;;
48765;SDS011;65794;51.836;5.002;2024-03-02T07:58:02;3.13;;;0.70;;
48765;SDS011;65794;51.836;5.002;2024-03-02T08:00:29;3.60;;;1.00;;
48765;SDS011;65794;51.836;5.002;2024-03-02T08:02:55;1.38;;;0.60;;
48765;SDS011;65794;51.836;5.002;2024-03-02T08:05:22;5.90;;;1.08;;
48765;SDS011;65794;51.836;5.002;2024-03-02T08:07:49;1.88;;;0.60;;
48765;SDS011;65794;51.836;5.002;2024-03-02T08:10:19;4.90;;;0.77;;
48765;SDS011;65794;51.836;5.002;2024-03-02T08:12:47;2.42;;;0.50;;
48765;SDS011;65794;51.836;5.002;2024-03-02T08:15:14;1.80;;;0.80;;
48765;SDS011;65794;51.836;5.002;2024-03-02T08:17:41;1.88;;;0.77;;
48765;SDS011;65794;51.836;5.002;2024-03-02T08:20:15;1.55;;;0.60;;
48765;SDS011;65794;51.836;5.002;2024-03-02T08:22:42;0.70;;;0.47;;
48765;SDS011;65794;51.836;5.002;2024-03-02T08:25:09;2.00;;;0.70;;
48765;SDS011;65794;51.836;5.002;2024-03-02T08:27:36;5.30;;;0.75;;
48765;SDS011;65794;51.836;5.002;2024-03-02T08:30:04;2.47;;;0.60;;
48765;SDS011;65794;51.836;5.002;2024-03-02T08:32:34;7.53;;;0.80;;
48765;SDS011;65794;51.836;5.002;2024-03-02T08:35:01;8.63;;;1.00;;
48765;SDS011;65794;51.836;5.002;2024-03-02T08:37:27;1.40;;;0.70;;
48765;SDS011;65794;51.836;5.002;2024-03-02T08:39:54;2.40;;;0.57;;
48765;SDS011;65794;51.836;5.002;2024-03-02T08:42:21;3.42;;;0.60;;
48765;SDS011;65794;51.836;5.002;2024-03-02T08:44:48;3.72;;;0.65;;
48765;SDS011;65794;51.836;5.002;2024-03-02T08:47:16;2.10;;;0.50;;
48765;SDS011;65794;51.836;5.002;2024-03-02T08:49:43;3.60;;;0.63;;
48765;SDS011;65794;51.836;5.002;2024-03-02T08:52:09;3.05;;;0.77;;
48765;SDS011;65794;51.836;5.002;2024-03-02T08:54:36;21.40;;;0.93;;
48765;SDS011;65794;51.836;5.002;2024-03-02T08:57:05;3.10;;;0.75;;
48765;SDS011;65794;51.836;5.002;2024-03-02T08:59:31;2.45;;;0.60;;
48765;SDS011;65794;51.836;5.002;2024-03-02T09:01:59;4.30;;;0.70;;
48765;SDS011;65794;51.836;5.002;2024-03-02T09:04:26;3.47;;;0.60;;
48765;SDS011;65794;51.836;5.002;2024-03-02T09:06:56;2.67;;;0.52;;
48765;SDS011;65794;51.836;5.002;2024-03-02T09:09:23;2.92;;;0.68;;
48765;SDS011;65794;51.836;5.002;2024-03-02T09:11:50;5.88;;;0.90;;
48765;SDS011;65794;51.836;5.002;2024-03-02T09:14:17;5.40;;;0.95;;
48765;SDS011;65794;51.836;5.002;2024-03-02T09:16:44;6.40;;;0.80;;
48765;SDS011;65794;51.836;5.002;2024-03-02T09:19:11;6.35;;;0.93;;
48765;SDS011;65794;51.836;5.002;2024-03-02T09:21:38;3.83;;;0.70;;
48765;SDS011;65794;51.836;5.002;2024-03-02T09:24:05;5.93;;;0.90;;
48765;SDS011;65794;51.836;5.002;2024-03-02T09:26:34;8.93;;;0.90;;
48765;SDS011;65794;51.836;5.002;2024-03-02T09:29:01;3.83;;;0.90;;
48765;SDS011;65794;51.836;5.002;2024-03-02T09:31:28;5.00;;;1.00;;
48765;SDS011;65794;51.836;5.002;2024-03-02T09:33:55;5.45;;;1.00;;
48765;SDS011;65794;51.836;5.002;2024-03-02T09:36:22;5.10;;;0.93;;
48765;SDS011;65794;51.836;5.002;2024-03-02T09:38:49;4.00;;;0.80;;
48765;SDS011;65794;51.836;5.002;2024-03-02T09:41:16;9.98;;;1.30;;
48765;SDS011;65794;51.836;5.002;2024-03-02T09:43:44;6.22;;;1.15;;
48765;SDS011;65794;51.836;5.002;2024-03-02T09:46:15;3.05;;;0.82;;
48765;SDS011;65794;51.836;5.002;2024-03-02T09:48:43;3.30;;;0.60;;
48765;SDS011;65794;51.836;5.002;2024-03-02T09:51:11;4.45;;;0.80;;
48765;SDS011;65794;51.836;5.002;2024-03-02T09:53:38;6.95;;;1.00;;
48765;SDS011;65794;51.836;5.002;2024-03-02T09:56:05;5.95;;;1.00;;
48765;SDS011;65794;51.836;5.002;2024-03-02T09:58:32;2.85;;;0.63;;
48765;SDS011;65794;51.836;5.002;2024-03-02T10:00:59;3.03;;;0.50;;
48765;SDS011;65794;51.836;5.002;2024-03-02T10:03:26;4.43;;;1.13;;
48765;SDS011;65794;51.836;5.002;2024-03-02T10:05:55;4.40;;;0.60;;
48765;SDS011;65794;51.836;5.002;2024-03-02T10:08:22;5.50;;;0.80;;
48765;SDS011;65794;51.836;5.002;2024-03-02T10:10:49;6.47;;;0.80;;
48765;SDS011;65794;51.836;5.002;2024-03-02T10:13:15;5.47;;;0.80;;
48765;SDS011;65794;51.836;5.002;2024-03-02T10:15:46;5.05;;;0.65;;
48765;SDS011;65794;51.836;5.002;2024-03-02T10:18:13;4.88;;;0.50;;
48765;SDS011;65794;51.836;5.002;2024-03-02T10:20:40;4.13;;;0.70;;
48765;SDS011;65794;51.836;5.002;2024-03-02T10:23:14;5.55;;;0.68;;
48765;SDS011;65794;51.836;5.002;2024-03-02T10:25:42;3.85;;;0.60;;
48765;SDS011;65794;51.836;5.002;2024-03-02T10:28:23;3.08;;;0.65;;
48765;SDS011;65794;51.836;5.002;2024-03-02T10:30:50;1.73;;;0.47;;
48765;SDS011;65794;51.836;5.002;2024-03-02T10:33:20;5.85;;;0.98;;
48765;SDS011;65794;51.836;5.002;2024-03-02T10:35:47;6.03;;;0.85;;
48765;SDS011;65794;51.836;5.002;2024-03-02T10:38:15;3.63;;;0.65;;
48765;SDS011;65794;51.836;5.002;2024-03-02T10:40:43;8.40;;;1.02;;
48765;SDS011;65794;51.836;5.002;2024-03-02T10:43:13;5.50;;;0.63;;
48765;SDS011;65794;51.836;5.002;2024-03-02T10:45:43;3.92;;;0.80;;
48765;SDS011;65794;51.836;5.002;2024-03-02T10:48:13;3.03;;;0.75;;
48765;SDS011;65794;51.836;5.002;2024-03-02T10:50:40;3.10;;;0.60;;
48765;SDS011;65794;51.836;5.002;2024-03-02T10:53:07;5.80;;;0.40;;
48765;SDS011;65794;51.836;5.002;2024-03-02T10:55:34;8.25;;;0.60;;
48765;SDS011;65794;51.836;5.002;2024-03-02T10:58:02;4.80;;;0.68;;
48765;SDS011;65794;51.836;5.002;2024-03-02T11:00:34;4.45;;;0.60;;
48765;SDS011;65794;51.836;5.002;2024-03-02T11:03:05;1.45;;;0.40;;
48765;SDS011;65794;51.836;5.002;2024-03-02T11:05:33;1.15;;;0.32;;
48765;SDS011;65794;51.836;5.002;2024-03-02T11:08:01;2.47;;;0.40;;
48765;SDS011;65794;51.836;5.002;2024-03-02T11:10:34;1.70;;;0.43;;
48765;SDS011;65794;51.836;5.002;2024-03-02T11:13:04;2.60;;;0.68;;
48765;SDS011;65794;51.836;5.002;2024-03-02T11:15:32;6.82;;;0.40;;
48765;SDS011;65794;51.836;5.002;2024-03-02T11:18:00;4.25;;;0.45;;
48765;SDS011;65794;51.836;5.002;2024-03-02T11:20:28;4.82;;;0.60;;
48765;SDS011;65794;51.836;5.002;2024-03-02T11:22:56;3.65;;;0.32;;
48765;SDS011;65794;51.836;5.002;2024-03-02T11:25:27;1.58;;;0.52;;
48765;SDS011;65794;51.836;5.002;2024-03-02T11:33:02;2.95;;;0.50;;
48765;SDS011;65794;51.836;5.002;2024-03-02T11:35:42;2.30;;;0.40;;
48765;SDS011;65794;51.836;5.002;2024-03-02T11:38:10;3.80;;;0.60;;
48765;SDS011;65794;51.836;5.002;2024-03-02T11:40:41;1.50;;;0.43;;
48765;SDS011;65794;51.836;5.002;2024-03-02T11:43:08;3.75;;;0.73;;
48765;SDS011;65794;51.836;5.002;2024-03-02T11:45:38;2.20;;;0.52;;
48765;SDS011;65794;51.836;5.002;2024-03-02T11:48:13;4.55;;;0.60;;
48765;SDS011;65794;51.836;5.002;2024-03-02T11:50:47;3.10;;;0.50;;
48765;SDS011;65794;51.836;5.002;2024-03-02T11:53:16;3.88;;;0.75;;
48765;SDS011;65794;51.836;5.002;2024-03-02T11:55:44;4.07;;;0.68;;
48765;SDS011;65794;51.836;5.002;2024-03-02T11:58:17;3.45;;;0.60;;
48765;SDS011;65794;51.836;5.002;2024-03-02T12:00:50;2.97;;;0.65;;
48765;SDS011;65794;51.836;5.002;2024-03-02T12:03:21;3.78;;;0.70;;
48765;SDS011;65794;51.836;5.002;2024-03-02T12:05:50;3.65;;;0.80;;
48765;SDS011;65794;51.836;5.002;2024-03-02T12:08:17;6.28;;;0.70;;
48765;SDS011;65794;51.836;5.002;2024-03-02T12:11:00;5.00;;;0.70;;
48765;SDS011;65794;51.836;5.002;2024-03-02T12:13:29;3.58;;;0.73;;
48765;SDS011;65794;51.836;5.002;2024-03-02T12:15:57;4.45;;;0.60;;
48765;SDS011;65794;51.836;5.002;2024-03-02T12:18:25;2.88;;;0.60;;
48765;SDS011;65794;51.836;5.002;2024-03-02T12:20:53;6.60;;;0.80;;
48765;SDS011;65794;51.836;5.002;2024-03-02T12:23:24;6.97;;;0.73;;
48765;SDS011;65794;51.836;5.002;2024-03-02T12:25:51;6.05;;;0.63;;
48765;SDS011;65794;51.836;5.002;2024-03-02T12:28:19;4.07;;;0.55;;
48765;SDS011;65794;51.836;5.002;2024-03-02T12:30:48;2.92;;;0.40;;
48765;SDS011;65794;51.836;5.002;2024-03-02T12:33:16;3.92;;;0.75;;
48765;SDS011;65794;51.836;5.002;2024-03-02T12:35:43;2.83;;;0.43;;
48765;SDS011;65794;51.836;5.002;2024-03-02T12:38:10;2.20;;;0.50;;
48765;SDS011;65794;51.836;5.002;2024-03-02T12:40:38;6.53;;;0.63;;
48765;SDS011;65794;51.836;5.002;2024-03-02T12:43:05;4.65;;;0.60;;
48765;SDS011;65794;51.836;5.002;2024-03-02T12:45:32;2.92;;;0.70;;
48765;SDS011;65794;51.836;5.002;2024-03-02T12:47:59;5.90;;;0.70;;
48765;SDS011;65794;51.836;5.002;2024-03-02T12:50:26;4.18;;;0.63;;
48765;SDS011;65794;51.836;5.002;2024-03-02T12:52:53;1.90;;;0.52;;
48765;SDS011;65794;51.836;5.002;2024-03-02T12:55:21;2.45;;;0.40;;
48765;SDS011;65794;51.836;5.002;2024-03-02T12:57:49;1.52;;;0.40;;
48765;SDS011;65794;51.836;5.002;2024-03-02T13:00:17;5.07;;;0.40;;
48765;SDS011;65794;51.836;5.002;2024-03-02T13:02:46;4.00;;;0.63;;
48765;SDS011;65794;51.836;5.002;2024-03-02T13:05:12;4.20;;;0.40;;
48765;SDS011;65794;51.836;5.002;2024-03-02T13:07:40;2.80;;;0.50;;
48765;SDS011;65794;51.836;5.002;2024-03-02T13:10:07;3.88;;;0.60;;
48765;SDS011;65794;51.836;5.002;2024-03-02T13:12:36;3.92;;;0.50;;
48765;SDS011;65794;51.836;5.002;2024-03-02T13:15:04;3.65;;;0.40;;
48765;SDS011;65794;51.836;5.002;2024-03-02T13:17:34;2.70;;;0.60;;
48765;SDS011;65794;51.836;5.002;2024-03-02T13:20:04;3.30;;;0.60;;
48765;SDS011;65794;51.836;5.002;2024-03-02T13:22:35;2.80;;;0.40;;
48765;SDS011;65794;51.836;5.002;2024-03-02T13:25:02;3.10;;;0.70;;
48765;SDS011;65794;51.836;5.002;2024-03-02T13:27:36;4.15;;;0.63;;
48765;SDS011;65794;51.836;5.002;2024-03-02T13:30:03;1.88;;;0.43;;
48765;SDS011;65794;51.836;5.002;2024-03-02T13:32:32;7.78;;;1.13;;
48765;SDS011;65794;51.836;5.002;2024-03-02T13:34:59;3.88;;;0.60;;
48765;SDS011;65794;51.836;5.002;2024-03-02T13:37:27;4.07;;;0.63;;
48765;SDS011;65794;51.836;5.002;2024-03-02T13:39:54;3.00;;;0.50;;
48765;SDS011;65794;51.836;5.002;2024-03-02T13:42:21;3.17;;;0.68;;
48765;SDS011;65794;51.836;5.002;2024-03-02T13:44:49;5.70;;;0.75;;
48765;SDS011;65794;51.836;5.002;2024-03-02T13:47:17;2.83;;;0.60;;
48765;SDS011;65794;51.836;5.002;2024-03-02T13:49:44;3.35;;;0.60;;
48765;SDS011;65794;51.836;5.002;2024-03-02T13:52:13;3.15;;;0.60;;
48765;SDS011;65794;51.836;5.002;2024-03-02T13:54:44;4.43;;;0.52;;
48765;SDS011;65794;51.836;5.002;2024-03-02T13:57:12;5.43;;;0.57;;
48765;SDS011;65794;51.836;5.002;2024-03-02T13:59:39;3.10;;;0.70;;
48765;SDS011;65794;51.836;5.002;2024-03-02T14:02:07;3.53;;;0.40;;
48765;SDS011;65794;51.836;5.002;2024-03-02T14:04:34;2.22;;;0.52;;
48765;SDS011;65794;51.836;5.002;2024-03-02T14:07:01;1.38;;;0.40;;
48765;SDS011;65794;51.836;5.002;2024-03-02T14:09:29;7.72;;;0.77;;
48765;SDS011;65794;51.836;5.002;2024-03-02T14:11:56;2.63;;;0.63;;
48765;SDS011;65794;51.836;5.002;2024-03-02T14:14:23;2.72;;;0.50;;
48765;SDS011;65794;51.836;5.002;2024-03-02T14:16:51;3.10;;;0.70;;
48765;SDS011;65794;51.836;5.002;2024-03-02T14:19:18;4.65;;;0.70;;
48765;SDS011;65794;51.836;5.002;2024-03-02T14:21:45;4.88;;;0.82;;
48765;SDS011;65794;51.836;5.002;2024-03-02T14:24:13;3.17;;;0.65;;
48765;SDS011;65794;51.836;5.002;2024-03-02T14:26:40;4.95;;;1.05;;
48765;SDS011;65794;51.836;5.002;2024-03-02T14:29:08;4.75;;;0.70;;
48765;SDS011;65794;51.836;5.002;2024-03-02T14:31:35;2.63;;;0.70;;
48765;SDS011;65794;51.836;5.002;2024-03-02T14:34:02;6.13;;;0.73;;
48765;SDS011;65794;51.836;5.002;2024-03-02T14:36:30;4.22;;;0.65;;
48765;SDS011;65794;51.836;5.002;2024-03-02T14:38:57;4.75;;;0.68;;
48765;SDS011;65794;51.836;5.002;2024-03-02T14:41:24;3.83;;;0.70;;
48765;SDS011;65794;51.836;5.002;2024-03-02T14:43:51;3.22;;;0.50;;
48765;SDS011;65794;51.836;5.002;2024-03-02T14:46:20;3.05;;;0.60;;
48765;SDS011;65794;51.836;5.002;2024-03-02T14:48:47;5.85;;;0.75;;
48765;SDS011;65794;51.836;5.002;2024-03-02T14:51:14;2.70;;;0.50;;
48765;SDS011;65794;51.836;5.002;2024-03-02T14:53:41;4.65;;;0.70;;
48765;SDS011;65794;51.836;5.002;2024-03-02T14:56:08;4.03;;;0.60;;
48765;SDS011;65794;51.836;5.002;2024-03-02T14:58:35;3.75;;;0.68;;
48765;SDS011;65794;51.836;5.002;2024-03-02T15:01:04;3.28;;;0.50;;
48765;SDS011;65794;51.836;5.002;2024-03-02T15:03:35;5.88;;;0.80;;
48765;SDS011;65794;51.836;5.002;2024-03-02T15:06:02;2.60;;;0.50;;